createdAt,value
2023-12-12T00:01:58.426Z,2.94
2023-12-12T00:07:04.940Z,2.57
2023-12-12T00:12:09.771Z,3.26
2023-12-12T00:17:14.405Z,2.81
2023-12-12T00:22:20.614Z,3.26
2023-12-12T00:27:25.565Z,2.70
2023-12-12T00:32:30.771Z,2.97
2023-12-12T00:37:37.101Z,3.02
2023-12-12T00:42:41.983Z,2.93
2023-12-12T00:47:47.456Z,2.75
2023-12-12T00:52:55.993Z,3.11
2023-12-12T00:58:00.833Z,3.03
2023-12-12T01:03:06.277Z,2.58
2023-12-12T01:08:15.920Z,2.97
2023-12-12T01:13:21.806Z,2.31
2023-12-12T01:18:28.169Z,2.10
2023-12-12T01:36:20.366Z,2.96
2023-12-12T01:41:27.761Z,2.69
2023-12-12T01:46:35.885Z,2.87
2023-12-12T01:51:41.925Z,2.09
2023-12-12T01:56:58.913Z,2.15
2023-12-12T03:16:11.946Z,3.21
2023-12-12T03:22:01.859Z,2.59
2023-12-12T03:27:34.979Z,2.54
2023-12-12T03:32:48.683Z,2.43
2023-12-12T03:37:55.619Z,2.30
2023-12-12T03:43:06.234Z,2.35
2023-12-12T03:49:20.382Z,2.26
2023-12-12T03:54:52.631Z,2.17
2023-12-12T04:13:05.743Z,2.54
2023-12-12T04:18:14.798Z,2.26
2023-12-12T04:23:26.344Z,2.57
2023-12-12T04:28:56.652Z,2.56
2023-12-12T04:34:53.362Z,2.71
2023-12-12T04:40:14.684Z,2.75
2023-12-12T04:45:27.678Z,2.47
2023-12-12T04:50:39.281Z,1.98
2023-12-12T04:56:08.676Z,2.36
2023-12-12T05:01:39.381Z,2.81
2023-12-12T05:14:13.633Z,2.91
2023-12-12T05:19:29.882Z,2.99
2023-12-12T05:24:39.095Z,2.82
2023-12-12T05:37:21.897Z,2.99
2023-12-12T05:42:32.292Z,2.94
2023-12-12T05:47:59.817Z,2.41
2023-12-12T05:59:00.218Z,2.79
2023-12-12T06:04:33.311Z,2.63
2023-12-12T06:46:17.863Z,3.06
2023-12-12T06:51:39.682Z,2.66
2023-12-12T06:56:50.967Z,2.91
2023-12-12T07:02:50.099Z,3.33
2023-12-12T07:08:43.727Z,2.66
2023-12-12T07:14:08.823Z,2.81
2023-12-12T07:19:18.162Z,2.47
2023-12-12T08:58:48.830Z,3.42
2023-12-12T09:11:21.997Z,4.25
2023-12-12T09:29:17.072Z,3.35
2023-12-12T09:34:32.313Z,3.31
2023-12-12T09:39:55.905Z,3.85
2023-12-12T09:45:29.831Z,4.07
2023-12-12T09:50:39.437Z,4.76
2023-12-12T10:20:02.959Z,4.38
2023-12-12T10:25:13.378Z,4.66
2023-12-12T10:30:20.594Z,4.43
2023-12-12T10:35:33.062Z,5.16
2023-12-12T10:40:42.952Z,4.97
2023-12-12T10:45:50.773Z,5.13
2023-12-12T10:51:07.330Z,4.63
2023-12-12T10:56:16.800Z,5.14
2023-12-12T11:01:25.924Z,5.59
2023-12-12T11:06:36.531Z,5.01
2023-12-12T11:11:46.793Z,5.12
2023-12-12T11:17:04.388Z,5.00
2023-12-12T11:22:42.090Z,5.06
2023-12-12T11:27:52.119Z,4.70
2023-12-12T11:33:02.748Z,4.76
2023-12-12T11:38:30.003Z,5.61
2023-12-12T11:43:40.729Z,5.85
2023-12-12T11:48:49.445Z,5.23
2023-12-12T11:54:00.077Z,5.82
2023-12-12T11:59:11.767Z,5.54
2023-12-12T12:04:18.600Z,5.35
2023-12-12T12:09:27.238Z,5.69
2023-12-12T12:14:35.117Z,5.63
2023-12-12T12:19:45.027Z,5.54
2023-12-12T12:24:54.431Z,5.04
2023-12-12T12:30:05.730Z,5.44
2023-12-12T12:35:15.336Z,5.19
2023-12-12T12:40:42.773Z,5.36
2023-12-12T12:45:58.237Z,4.17
2023-12-12T12:51:18.397Z,5.01
2023-12-12T12:56:30.392Z,4.56
2023-12-12T13:01:42.538Z,4.73
2023-12-12T13:06:55.378Z,5.24
2023-12-12T13:12:04.886Z,5.35
2023-12-12T13:17:12.689Z,5.03
2023-12-12T13:22:20.682Z,4.88
2023-12-12T13:27:32.348Z,4.88
2023-12-12T13:32:45.907Z,5.67
2023-12-12T13:37:56.307Z,5.41
2023-12-12T13:43:08.395Z,5.67
2023-12-12T13:48:20.191Z,5.85
2023-12-12T13:53:42.023Z,6.33
2023-12-12T13:59:08.014Z,6.32
2023-12-12T14:04:47.358Z,6.00
2023-12-12T14:10:06.108Z,6.17
2023-12-12T14:16:07.731Z,5.56
2023-12-12T14:21:18.803Z,5.68
2023-12-12T14:32:44.677Z,5.96
2023-12-12T14:38:18.525Z,5.67
2023-12-12T14:50:59.794Z,4.77
2023-12-12T14:56:12.866Z,5.83
2023-12-12T15:01:33.005Z,6.42
2023-12-12T15:06:45.411Z,5.20
2023-12-12T15:12:17.062Z,5.26
2023-12-12T15:17:48.944Z,5.10
2023-12-12T15:23:06.776Z,5.41
2023-12-12T15:28:47.749Z,5.15
2023-12-12T15:41:53.835Z,5.55
2023-12-12T15:48:14.072Z,6.41
2023-12-12T16:00:15.739Z,6.13
2023-12-12T16:05:25.683Z,5.85
2023-12-12T16:32:35.338Z,5.43
2023-12-12T16:38:10.851Z,5.89
2023-12-12T16:44:06.880Z,5.46
2023-12-12T16:49:52.738Z,5.35
2023-12-12T16:55:00.297Z,5.40
2023-12-12T17:00:17.354Z,5.40
2023-12-12T17:05:27.424Z,5.32
2023-12-12T17:10:33.206Z,5.30
2023-12-12T17:16:15.700Z,4.28
2023-12-12T17:48:52.079Z,4.36
2023-12-12T17:54:00.757Z,5.46
2023-12-12T17:59:09.334Z,5.57
2023-12-12T18:04:18.703Z,5.41
2023-12-12T18:15:47.399Z,4.85
2023-12-12T18:21:14.920Z,4.66
2023-12-12T18:26:30.367Z,4.86
2023-12-12T18:31:59.369Z,4.92
2023-12-12T18:37:08.897Z,4.76
2023-12-12T18:42:25.503Z,5.06
2023-12-12T18:48:02.384Z,4.87
2023-12-12T18:53:11.489Z,5.08
2023-12-12T18:58:28.532Z,4.72
2023-12-12T19:03:34.921Z,5.47
2023-12-12T19:14:51.561Z,4.24
2023-12-12T19:20:09.636Z,3.30
2023-12-12T19:25:15.115Z,3.78
2023-12-12T19:30:25.329Z,4.61
2023-12-12T19:35:49.418Z,4.38
2023-12-12T19:47:18.474Z,4.61
2023-12-12T19:52:25.868Z,4.75
2023-12-12T19:57:36.947Z,5.08
2023-12-12T20:02:47.169Z,4.63
2023-12-12T20:07:52.864Z,3.66
2023-12-12T20:13:01.468Z,4.45
2023-12-12T20:24:39.552Z,4.15
2023-12-12T20:29:58.581Z,4.92
2023-12-12T20:35:07.042Z,4.47
2023-12-12T20:40:16.774Z,3.78
2023-12-12T20:45:24.296Z,4.12
2023-12-12T20:50:31.387Z,3.97
2023-12-12T20:55:43.425Z,4.99
2023-12-12T21:01:36.086Z,5.56
2023-12-12T21:06:46.893Z,4.35
2023-12-12T21:12:32.183Z,4.53
2023-12-12T21:17:42.447Z,4.86
2023-12-12T21:22:52.421Z,4.31
2023-12-12T21:28:08.712Z,4.54
2023-12-12T21:33:25.252Z,4.39
2023-12-12T21:38:46.312Z,5.16
2023-12-12T21:44:52.180Z,5.28
2023-12-12T22:02:05.033Z,5.16
2023-12-12T22:08:14.613Z,4.60
2023-12-12T22:13:29.233Z,4.51
2023-12-12T22:25:41.797Z,4.73
2023-12-12T22:30:57.916Z,4.05
2023-12-12T22:42:40.130Z,5.20
2023-12-12T22:54:08.057Z,4.15
2023-12-12T22:59:42.595Z,3.57
2023-12-12T23:05:48.827Z,3.55
2023-12-12T23:11:31.932Z,3.23
2023-12-12T23:17:05.012Z,3.20
2023-12-12T23:22:22.420Z,3.77
2023-12-12T23:27:34.091Z,3.33
2023-12-12T23:33:00.082Z,4.40
2023-12-12T23:38:07.675Z,3.99
2023-12-12T23:43:16.188Z,4.05
2023-12-12T23:48:29.922Z,4.18
2023-12-12T23:53:38.724Z,4.12
2023-12-12T23:58:47.954Z,4.10
